sensor_id;sensor_type;location;lat;lon;timestamp;P1;durP1;ratioP1;P2;durP2;ratioP2
15142;SDS011;7672;50.834;6.286;2023-03-13T00:01:23;13.27;;;3.87;;
15142;SDS011;7672;50.834;6.286;2023-03-13T00:03:54;12.60;;;3.37;;
15142;SDS011;7672;50.834;6.286;2023-03-13T00:06:22;15.87;;;3.93;;
15142;SDS011;7672;50.834;6.286;2023-03-13T00:08:51;11.87;;;3.60;;
15142;SDS011;7672;50.834;6.286;2023-03-13T00:11:19;14.80;;;3.60;;
15142;SDS011;7672;50.834;6.286;2023-03-13T00:13:46;9.13;;;3.07;;
15142;SDS011;7672;50.834;6.286;2023-03-13T00:16:14;16.33;;;4.27;;
15142;SDS011;7672;50.834;6.286;2023-03-13T00:18:45;12.33;;;4.03;;
15142;SDS011;7672;50.834;6.286;2023-03-13T00:21:15;15.73;;;3.37;;
15142;SDS011;7672;50.834;6.286;2023-03-13T00:23:45;13.63;;;3.10;;
15142;SDS011;7672;50.834;6.286;2023-03-13T00:26:14;16.70;;;3.63;;
15142;SDS011;7672;50.834;6.286;2023-03-13T00:28:44;13.27;;;3.47;;
15142;SDS011;7672;50.834;6.286;2023-03-13T00:31:12;10.87;;;3.20;;
15142;SDS011;7672;50.834;6.286;2023-03-13T00:33:43;12.07;;;3.73;;
15142;SDS011;7672;50.834;6.286;2023-03-13T00:36:19;14.03;;;3.13;;
15142;SDS011;7672;50.834;6.286;2023-03-13T00:38:49;9.60;;;2.87;;
15142;SDS011;7672;50.834;6.286;2023-03-13T00:41:21;14.60;;;3.20;;
15142;SDS011;7672;50.834;6.286;2023-03-13T00:43:56;9.23;;;3.00;;
15142;SDS011;7672;50.834;6.286;2023-03-13T00:46:25;13.40;;;3.00;;
15142;SDS011;7672;50.834;6.286;2023-03-13T00:48:54;12.33;;;2.63;;
15142;SDS011;7672;50.834;6.286;2023-03-13T00:51:22;12.73;;;3.30;;
15142;SDS011;7672;50.834;6.286;2023-03-13T00:53:52;8.57;;;2.70;;
15142;SDS011;7672;50.834;6.286;2023-03-13T00:56:21;10.83;;;2.90;;
15142;SDS011;7672;50.834;6.286;2023-03-13T00:58:48;8.87;;;2.60;;
15142;SDS011;7672;50.834;6.286;2023-03-13T01:01:20;9.63;;;2.40;;
15142;SDS011;7672;50.834;6.286;2023-03-13T01:03:53;12.37;;;3.00;;
15142;SDS011;7672;50.834;6.286;2023-03-13T01:06:24;7.70;;;2.50;;
15142;SDS011;7672;50.834;6.286;2023-03-13T01:08:54;8.27;;;2.00;;
15142;SDS011;7672;50.834;6.286;2023-03-13T01:11:22;12.00;;;2.67;;
15142;SDS011;7672;50.834;6.286;2023-03-13T01:13:56;9.03;;;3.27;;
15142;SDS011;7672;50.834;6.286;2023-03-13T01:16:27;7.87;;;2.70;;
15142;SDS011;7672;50.834;6.286;2023-03-13T01:19:00;6.40;;;2.03;;
15142;SDS011;7672;50.834;6.286;2023-03-13T01:21:31;8.47;;;2.40;;
15142;SDS011;7672;50.834;6.286;2023-03-13T01:23:58;9.67;;;2.80;;
15142;SDS011;7672;50.834;6.286;2023-03-13T01:26:25;5.33;;;2.33;;
15142;SDS011;7672;50.834;6.286;2023-03-13T01:28:52;6.20;;;1.97;;
15142;SDS011;7672;50.834;6.286;2023-03-13T01:31:21;7.23;;;2.17;;
15142;SDS011;7672;50.834;6.286;2023-03-13T01:33:55;7.87;;;2.57;;
15142;SDS011;7672;50.834;6.286;2023-03-13T01:36:24;7.67;;;2.07;;
15142;SDS011;7672;50.834;6.286;2023-03-13T01:38:54;7.20;;;2.23;;
15142;SDS011;7672;50.834;6.286;2023-03-13T01:41:23;6.57;;;2.53;;
15142;SDS011;7672;50.834;6.286;2023-03-13T01:43:51;4.40;;;1.87;;
15142;SDS011;7672;50.834;6.286;2023-03-13T01:46:21;5.57;;;1.63;;
15142;SDS011;7672;50.834;6.286;2023-03-13T01:57:22;5.47;;;1.43;;
15142;SDS011;7672;50.834;6.286;2023-03-13T01:59:59;5.50;;;1.47;;
15142;SDS011;7672;50.834;6.286;2023-03-13T02:02:43;4.17;;;1.43;;
15142;SDS011;7672;50.834;6.286;2023-03-13T02:05:16;4.77;;;1.40;;
15142;SDS011;7672;50.834;6.286;2023-03-13T02:07:47;2.87;;;1.03;;
15142;SDS011;7672;50.834;6.286;2023-03-13T02:10:22;3.27;;;1.40;;
15142;SDS011;7672;50.834;6.286;2023-03-13T02:12:50;2.80;;;1.33;;
15142;SDS011;7672;50.834;6.286;2023-03-13T02:15:19;2.87;;;1.03;;
15142;SDS011;7672;50.834;6.286;2023-03-13T02:17:49;2.87;;;1.23;;
15142;SDS011;7672;50.834;6.286;2023-03-13T02:20:18;1.87;;;1.10;;
15142;SDS011;7672;50.834;6.286;2023-03-13T02:22:57;1.37;;;0.90;;
15142;SDS011;7672;50.834;6.286;2023-03-13T02:25:46;1.03;;;0.93;;
15142;SDS011;7672;50.834;6.286;2023-03-13T02:30:54;3.63;;;1.80;;
15142;SDS011;7672;50.834;6.286;2023-03-13T02:33:27;1.77;;;1.30;;
15142;SDS011;7672;50.834;6.286;2023-03-13T02:36:00;1.90;;;1.30;;
15142;SDS011;7672;50.834;6.286;2023-03-13T02:38:30;1.57;;;1.30;;
15142;SDS011;7672;50.834;6.286;2023-03-13T02:41:04;1.77;;;1.20;;
15142;SDS011;7672;50.834;6.286;2023-03-13T02:43:33;3.37;;;1.60;;
15142;SDS011;7672;50.834;6.286;2023-03-13T02:46:03;1.63;;;1.53;;
15142;SDS011;7672;50.834;6.286;2023-03-13T02:48:40;2.10;;;1.30;;
15142;SDS011;7672;50.834;6.286;2023-03-13T02:54:10;1.97;;;1.33;;
15142;SDS011;7672;50.834;6.286;2023-03-13T02:56:44;2.27;;;1.53;;
15142;SDS011;7672;50.834;6.286;2023-03-13T02:59:14;2.30;;;1.30;;
15142;SDS011;7672;50.834;6.286;2023-03-13T03:01:41;1.77;;;1.67;;
15142;SDS011;7672;50.834;6.286;2023-03-13T03:04:08;1.60;;;1.50;;
15142;SDS011;7672;50.834;6.286;2023-03-13T03:06:34;1.50;;;1.40;;
15142;SDS011;7672;50.834;6.286;2023-03-13T03:09:02;3.77;;;1.40;;
15142;SDS011;7672;50.834;6.286;2023-03-13T03:11:29;1.33;;;1.23;;
15142;SDS011;7672;50.834;6.286;2023-03-13T03:13:56;2.40;;;1.63;;
15142;SDS011;7672;50.834;6.286;2023-03-13T03:16:23;1.30;;;1.20;;
15142;SDS011;7672;50.834;6.286;2023-03-13T03:18:50;1.50;;;1.40;;
15142;SDS011;7672;50.834;6.286;2023-03-13T03:21:16;1.37;;;1.10;;
15142;SDS011;7672;50.834;6.286;2023-03-13T03:23:43;1.20;;;1.10;;
15142;SDS011;7672;50.834;6.286;2023-03-13T03:26:10;1.47;;;1.20;;
15142;SDS011;7672;50.834;6.286;2023-03-13T03:28:37;1.20;;;1.10;;
15142;SDS011;7672;50.834;6.286;2023-03-13T03:31:04;2.13;;;1.73;;
15142;SDS011;7672;50.834;6.286;2023-03-13T03:33:33;1.40;;;1.30;;
15142;SDS011;7672;50.834;6.286;2023-03-13T03:36:01;1.93;;;1.40;;
15142;SDS011;7672;50.834;6.286;2023-03-13T03:38:31;1.60;;;1.50;;
15142;SDS011;7672;50.834;6.286;2023-03-13T03:40:59;1.80;;;1.47;;
15142;SDS011;7672;50.834;6.286;2023-03-13T03:43:26;1.40;;;1.30;;
15142;SDS011;7672;50.834;6.286;2023-03-13T03:45:53;2.63;;;1.97;;
15142;SDS011;7672;50.834;6.286;2023-03-13T03:48:20;1.63;;;1.53;;
15142;SDS011;7672;50.834;6.286;2023-03-13T03:50:47;3.63;;;1.63;;
15142;SDS011;7672;50.834;6.286;2023-03-13T03:53:14;1.63;;;1.30;;
15142;SDS011;7672;50.834;6.286;2023-03-13T03:55:40;1.63;;;1.40;;
15142;SDS011;7672;50.834;6.286;2023-03-13T03:58:07;2.00;;;1.50;;
15142;SDS011;7672;50.834;6.286;2023-03-13T04:00:34;3.07;;;1.30;;
15142;SDS011;7672;50.834;6.286;2023-03-13T04:03:01;2.47;;;1.40;;
15142;SDS011;7672;50.834;6.286;2023-03-13T04:05:28;1.17;;;1.07;;
15142;SDS011;7672;50.834;6.286;2023-03-13T04:07:55;1.13;;;0.90;;
15142;SDS011;7672;50.834;6.286;2023-03-13T04:10:21;1.80;;;1.47;;
15142;SDS011;7672;50.834;6.286;2023-03-13T04:12:48;1.10;;;0.90;;
15142;SDS011;7672;50.834;6.286;2023-03-13T04:15:15;2.97;;;0.97;;
15142;SDS011;7672;50.834;6.286;2023-03-13T04:17:42;1.27;;;1.00;;
15142;SDS011;7672;50.834;6.286;2023-03-13T04:20:09;2.73;;;1.20;;
15142;SDS011;7672;50.834;6.286;2023-03-13T04:22:39;0.97;;;0.70;;
15142;SDS011;7672;50.834;6.286;2023-03-13T04:25:07;2.13;;;1.10;;
15142;SDS011;7672;50.834;6.286;2023-03-13T04:27:35;1.80;;;1.03;;
15142;SDS011;7672;50.834;6.286;2023-03-13T04:30:02;1.77;;;0.93;;
15142;SDS011;7672;50.834;6.286;2023-03-13T04:32:30;1.70;;;1.20;;
15142;SDS011;7672;50.834;6.286;2023-03-13T04:34:56;1.30;;;1.20;;
15142;SDS011;7672;50.834;6.286;2023-03-13T04:37:24;2.20;;;1.00;;
15142;SDS011;7672;50.834;6.286;2023-03-13T04:39:50;1.13;;;1.10;;
15142;SDS011;7672;50.834;6.286;2023-03-13T04:42:17;1.07;;;1.07;;
15142;SDS011;7672;50.834;6.286;2023-03-13T04:44:44;2.20;;;1.23;;
15142;SDS011;7672;50.834;6.286;2023-03-13T04:47:11;1.30;;;1.10;;
15142;SDS011;7672;50.834;6.286;2023-03-13T04:49:37;2.13;;;1.23;;
15142;SDS011;7672;50.834;6.286;2023-03-13T04:52:04;1.23;;;1.20;;
15142;SDS011;7672;50.834;6.286;2023-03-13T04:54:32;3.40;;;1.50;;
15142;SDS011;7672;50.834;6.286;2023-03-13T04:56:59;2.30;;;1.50;;
15142;SDS011;7672;50.834;6.286;2023-03-13T04:59:25;2.67;;;1.47;;
15142;SDS011;7672;50.834;6.286;2023-03-13T05:01:52;1.53;;;1.43;;
15142;SDS011;7672;50.834;6.286;2023-03-13T05:04:19;1.67;;;1.40;;
15142;SDS011;7672;50.834;6.286;2023-03-13T05:06:46;1.80;;;1.30;;
15142;SDS011;7672;50.834;6.286;2023-03-13T05:09:13;1.23;;;1.13;;
15142;SDS011;7672;50.834;6.286;2023-03-13T05:11:40;2.13;;;1.40;;
15142;SDS011;7672;50.834;6.286;2023-03-13T05:14:07;2.43;;;1.20;;
15142;SDS011;7672;50.834;6.286;2023-03-13T05:16:37;3.23;;;1.30;;
15142;SDS011;7672;50.834;6.286;2023-03-13T05:19:04;1.50;;;1.40;;
15142;SDS011;7672;50.834;6.286;2023-03-13T05:21:31;1.80;;;1.23;;
15142;SDS011;7672;50.834;6.286;2023-03-13T05:23:58;5.33;;;1.43;;
15142;SDS011;7672;50.834;6.286;2023-03-13T05:26:24;2.67;;;1.60;;
15142;SDS011;7672;50.834;6.286;2023-03-13T05:28:51;2.27;;;1.57;;
15142;SDS011;7672;50.834;6.286;2023-03-13T05:31:18;2.00;;;1.90;;
15142;SDS011;7672;50.834;6.286;2023-03-13T05:33:45;2.70;;;1.80;;
15142;SDS011;7672;50.834;6.286;2023-03-13T05:36:12;3.33;;;1.67;;
15142;SDS011;7672;50.834;6.286;2023-03-13T05:38:38;1.50;;;1.40;;
15142;SDS011;7672;50.834;6.286;2023-03-13T05:41:05;2.27;;;1.80;;
15142;SDS011;7672;50.834;6.286;2023-03-13T05:43:32;1.97;;;1.73;;
15142;SDS011;7672;50.834;6.286;2023-03-13T05:45:59;3.17;;;1.87;;
15142;SDS011;7672;50.834;6.286;2023-03-13T05:48:25;4.10;;;1.43;;
15142;SDS011;7672;50.834;6.286;2023-03-13T05:50:52;3.00;;;1.70;;
15142;SDS011;7672;50.834;6.286;2023-03-13T05:53:19;2.53;;;1.20;;
15142;SDS011;7672;50.834;6.286;2023-03-13T05:55:46;2.07;;;1.53;;
15142;SDS011;7672;50.834;6.286;2023-03-13T05:58:12;2.33;;;1.57;;
15142;SDS011;7672;50.834;6.286;2023-03-13T06:00:39;1.97;;;1.57;;
15142;SDS011;7672;50.834;6.286;2023-03-13T06:03:08;1.50;;;1.40;;
15142;SDS011;7672;50.834;6.286;2023-03-13T06:05:38;2.53;;;1.73;;
15142;SDS011;7672;50.834;6.286;2023-03-13T06:08:05;1.40;;;1.30;;
15142;SDS011;7672;50.834;6.286;2023-03-13T06:10:32;3.27;;;1.80;;
15142;SDS011;7672;50.834;6.286;2023-03-13T06:12:59;1.57;;;1.47;;
15142;SDS011;7672;50.834;6.286;2023-03-13T06:15:49;3.70;;;1.63;;
15142;SDS011;7672;50.834;6.286;2023-03-13T06:18:18;4.57;;;2.10;;
15142;SDS011;7672;50.834;6.286;2023-03-13T06:20:45;4.63;;;1.63;;
15142;SDS011;7672;50.834;6.286;2023-03-13T06:23:15;7.23;;;2.17;;
15142;SDS011;7672;50.834;6.286;2023-03-13T06:25:45;4.60;;;2.20;;
15142;SDS011;7672;50.834;6.286;2023-03-13T06:28:13;4.70;;;1.87;;
15142;SDS011;7672;50.834;6.286;2023-03-13T06:30:41;3.07;;;1.93;;
15142;SDS011;7672;50.834;6.286;2023-03-13T06:33:08;5.17;;;2.10;;
15142;SDS011;7672;50.834;6.286;2023-03-13T06:35:38;2.67;;;2.10;;
15142;SDS011;7672;50.834;6.286;2023-03-13T06:38:22;2.37;;;2.10;;
15142;SDS011;7672;50.834;6.286;2023-03-13T06:40:50;5.70;;;2.23;;
15142;SDS011;7672;50.834;6.286;2023-03-13T06:43:17;4.83;;;2.07;;
15142;SDS011;7672;50.834;6.286;2023-03-13T06:45:44;1.87;;;1.77;;
15142;SDS011;7672;50.834;6.286;2023-03-13T06:48:11;4.27;;;2.17;;
15142;SDS011;7672;50.834;6.286;2023-03-13T06:50:39;3.13;;;1.90;;
15142;SDS011;7672;50.834;6.286;2023-03-13T06:53:09;3.23;;;2.33;;
15142;SDS011;7672;50.834;6.286;2023-03-13T06:55:45;4.13;;;2.40;;
15142;SDS011;7672;50.834;6.286;2023-03-13T06:58:14;3.67;;;2.20;;
15142;SDS011;7672;50.834;6.286;2023-03-13T07:00:57;4.60;;;2.50;;
15142;SDS011;7672;50.834;6.286;2023-03-13T07:03:26;3.37;;;2.17;;
15142;SDS011;7672;50.834;6.286;2023-03-13T07:05:56;5.53;;;2.43;;
15142;SDS011;7672;50.834;6.286;2023-03-13T07:08:24;6.57;;;3.07;;
15142;SDS011;7672;50.834;6.286;2023-03-13T07:10:58;7.17;;;3.10;;
15142;SDS011;7672;50.834;6.286;2023-03-13T07:13:34;6.10;;;2.37;;
15142;SDS011;7672;50.834;6.286;2023-03-13T07:16:09;6.70;;;2.77;;
15142;SDS011;7672;50.834;6.286;2023-03-13T07:18:39;4.63;;;2.67;;
15142;SDS011;7672;50.834;6.286;2023-03-13T07:21:10;7.53;;;3.30;;
15142;SDS011;7672;50.834;6.286;2023-03-13T07:23:38;5.40;;;3.40;;
15142;SDS011;7672;50.834;6.286;2023-03-13T07:26:07;7.60;;;2.43;;
15142;SDS011;7672;50.834;6.286;2023-03-13T07:28:38;6.10;;;2.70;;
15142;SDS011;7672;50.834;6.286;2023-03-13T07:31:06;5.03;;;2.53;;
15142;SDS011;7672;50.834;6.286;2023-03-13T07:33:47;5.73;;;2.90;;
15142;SDS011;7672;50.834;6.286;2023-03-13T07:36:14;5.77;;;2.90;;
15142;SDS011;7672;50.834;6.286;2023-03-13T07:38:41;5.20;;;2.40;;
15142;SDS011;7672;50.834;6.286;2023-03-13T07:41:10;7.33;;;2.53;;
15142;SDS011;7672;50.834;6.286;2023-03-13T07:43:40;6.43;;;2.40;;
15142;SDS011;7672;50.834;6.286;2023-03-13T07:46:08;5.60;;;2.47;;
15142;SDS011;7672;50.834;6.286;2023-03-13T07:48:40;6.27;;;2.43;;
15142;SDS011;7672;50.834;6.286;2023-03-13T07:51:12;6.53;;;2.77;;
15142;SDS011;7672;50.834;6.286;2023-03-13T07:54:02;5.60;;;2.57;;
15142;SDS011;7672;50.834;6.286;2023-03-13T07:56:28;9.57;;;2.50;;
15142;SDS011;7672;50.834;6.286;2023-03-13T07:58:55;8.00;;;2.70;;
15142;SDS011;7672;50.834;6.286;2023-03-13T08:01:23;6.93;;;2.47;;
15142;SDS011;7672;50.834;6.286;2023-03-13T08:03:56;4.23;;;2.40;;
15142;SDS011;7672;50.834;6.286;2023-03-13T08:06:24;6.13;;;2.60;;
15142;SDS011;7672;50.834;6.286;2023-03-13T08:08:55;5.23;;;3.03;;
15142;SDS011;7672;50.834;6.286;2023-03-13T08:11:25;4.60;;;2.37;;
15142;SDS011;7672;50.834;6.286;2023-03-13T08:13:54;7.07;;;2.67;;
15142;SDS011;7672;50.834;6.286;2023-03-13T08:16:26;5.07;;;2.57;;
15142;SDS011;7672;50.834;6.286;2023-03-13T08:18:57;5.83;;;2.53;;
15142;SDS011;7672;50.834;6.286;2023-03-13T08:21:29;4.17;;;2.50;;
15142;SDS011;7672;50.834;6.286;2023-03-13T08:24:01;6.50;;;2.43;;
15142;SDS011;7672;50.834;6.286;2023-03-13T08:26:32;4.43;;;2.60;;
15142;SDS011;7672;50.834;6.286;2023-03-13T08:29:06;6.43;;;2.80;;
15142;SDS011;7672;50.834;6.286;2023-03-13T08:31:42;5.27;;;2.80;;
15142;SDS011;7672;50.834;6.286;2023-03-13T08:34:14;7.07;;;3.00;;
15142;SDS011;7672;50.834;6.286;2023-03-13T08:36:43;4.80;;;2.90;;
15142;SDS011;7672;50.834;6.286;2023-03-13T08:41:43;4.87;;;2.40;;
15142;SDS011;7672;50.834;6.286;2023-03-13T08:44:11;5.87;;;2.50;;
15142;SDS011;7672;50.834;6.286;2023-03-13T08:46:41;10.20;;;2.80;;
15142;SDS011;7672;50.834;6.286;2023-03-13T08:49:09;6.33;;;2.60;;
15142;SDS011;7672;50.834;6.286;2023-03-13T08:51:37;5.63;;;2.80;;
15142;SDS011;7672;50.834;6.286;2023-03-13T08:54:04;3.93;;;2.67;;
15142;SDS011;7672;50.834;6.286;2023-03-13T08:56:31;4.77;;;2.60;;
15142;SDS011;7672;50.834;6.286;2023-03-13T08:59:00;6.10;;;2.50;;
15142;SDS011;7672;50.834;6.286;2023-03-13T09:01:31;4.03;;;2.43;;
15142;SDS011;7672;50.834;6.286;2023-03-13T09:04:00;4.67;;;2.40;;
15142;SDS011;7672;50.834;6.286;2023-03-13T09:06:30;4.13;;;2.07;;
15142;SDS011;7672;50.834;6.286;2023-03-13T09:08:59;4.23;;;2.60;;
15142;SDS011;7672;50.834;6.286;2023-03-13T09:11:26;5.27;;;2.70;;
15142;SDS011;7672;50.834;6.286;2023-03-13T09:13:53;5.90;;;2.63;;
15142;SDS011;7672;50.834;6.286;2023-03-13T09:16:25;4.70;;;2.47;;
15142;SDS011;7672;50.834;6.286;2023-03-13T09:18:55;5.37;;;2.93;;
15142;SDS011;7672;50.834;6.286;2023-03-13T09:21:24;4.20;;;2.40;;
15142;SDS011;7672;50.834;6.286;2023-03-13T09:23:54;5.87;;;2.70;;
15142;SDS011;7672;50.834;6.286;2023-03-13T09:26:22;3.80;;;2.30;;
15142;SDS011;7672;50.834;6.286;2023-03-13T09:28:53;3.73;;;2.53;;
15142;SDS011;7672;50.834;6.286;2023-03-13T09:33:56;5.20;;;2.00;;
15142;SDS011;7672;50.834;6.286;2023-03-13T09:36:24;3.43;;;2.07;;
15142;SDS011;7672;50.834;6.286;2023-03-13T09:38:52;3.37;;;2.17;;
15142;SDS011;7672;50.834;6.286;2023-03-13T09:41:23;4.67;;;2.10;;
15142;SDS011;7672;50.834;6.286;2023-03-13T09:44:17;4.00;;;1.90;;
15142;SDS011;7672;50.834;6.286;2023-03-13T09:50:13;3.10;;;2.00;;
15142;SDS011;7672;50.834;6.286;2023-03-13T09:52:52;4.77;;;1.90;;
15142;SDS011;7672;50.834;6.286;2023-03-13T09:55:29;3.43;;;2.10;;
15142;SDS011;7672;50.834;6.286;2023-03-13T09:58:19;1.90;;;1.65;;
15142;SDS011;7672;50.834;6.286;2023-03-13T10:00:56;2.78;;;1.70;;
15142;SDS011;7672;50.834;6.286;2023-03-13T10:03:28;2.90;;;1.75;;
15142;SDS011;7672;50.834;6.286;2023-03-13T10:06:17;2.78;;;1.55;;
15142;SDS011;7672;50.834;6.286;2023-03-13T10:08:46;2.33;;;1.45;;
15142;SDS011;7672;50.834;6.286;2023-03-13T10:11:20;3.55;;;1.60;;
15142;SDS011;7672;50.834;6.286;2023-03-13T10:13:58;3.20;;;1.52;;
15142;SDS011;7672;50.834;6.286;2023-03-13T10:19:38;2.67;;;1.20;;
15142;SDS011;7672;50.834;6.286;2023-03-13T10:22:18;2.25;;;1.38;;
15142;SDS011;7672;50.834;6.286;2023-03-13T10:24:59;2.65;;;1.20;;
15142;SDS011;7672;50.834;6.286;2023-03-13T10:27:49;2.72;;;1.63;;
15142;SDS011;7672;50.834;6.286;2023-03-13T10:30:30;3.00;;;1.77;;
15142;SDS011;7672;50.834;6.286;2023-03-13T10:35:39;2.17;;;1.58;;
15142;SDS011;7672;50.834;6.286;2023-03-13T10:38:26;1.52;;;1.27;;
15142;SDS011;7672;50.834;6.286;2023-03-13T10:40:57;1.58;;;1.30;;
15142;SDS011;7672;50.834;6.286;2023-03-13T10:43:28;2.40;;;1.30;;
15142;SDS011;7672;50.834;6.286;2023-03-13T10:45:55;1.20;;;1.10;;
15142;SDS011;7672;50.834;6.286;2023-03-13T10:48:23;1.20;;;1.10;;
15142;SDS011;7672;50.834;6.286;2023-03-13T10:50:55;1.90;;;1.30;;
15142;SDS011;7672;50.834;6.286;2023-03-13T10:56:04;1.98;;;1.13;;
15142;SDS011;7672;50.834;6.286;2023-03-13T10:58:41;1.95;;;1.10;;
15142;SDS011;7672;50.834;6.286;2023-03-13T11:01:22;1.25;;;1.10;;
15142;SDS011;7672;50.834;6.286;2023-03-13T11:03:57;1.52;;;1.05;;
15142;SDS011;7672;50.834;6.286;2023-03-13T11:06:28;1.27;;;1.17;;
15142;SDS011;7672;50.834;6.286;2023-03-13T11:09:10;1.17;;;1.10;;
15142;SDS011;7672;50.834;6.286;2023-03-13T11:11:54;1.20;;;1.10;;
15142;SDS011;7672;50.834;6.286;2023-03-13T11:14:31;1.00;;;1.00;;
15142;SDS011;7672;50.834;6.286;2023-03-13T11:17:04;1.00;;;0.88;;
15142;SDS011;7672;50.834;6.286;2023-03-13T11:20:02;1.33;;;1.05;;
15142;SDS011;7672;50.834;6.286;2023-03-13T11:27:54;1.30;;;0.90;;
15142;SDS011;7672;50.834;6.286;2023-03-13T11:30:48;0.85;;;0.75;;
15142;SDS011;7672;50.834;6.286;2023-03-13T11:33:28;1.05;;;0.77;;
15142;SDS011;7672;50.834;6.286;2023-03-13T11:36:20;1.10;;;0.98;;
15142;SDS011;7672;50.834;6.286;2023-03-13T11:57:28;1.00;;;0.70;;
15142;SDS011;7672;50.834;6.286;2023-03-13T12:00:11;3.55;;;1.00;;
15142;SDS011;7672;50.834;6.286;2023-03-13T12:02:55;1.02;;;0.90;;
15142;SDS011;7672;50.834;6.286;2023-03-13T12:05:48;1.00;;;0.90;;
15142;SDS011;7672;50.834;6.286;2023-03-13T12:08:24;1.38;;;0.90;;
15142;SDS011;7672;50.834;6.286;2023-03-13T12:11:00;1.05;;;0.98;;
15142;SDS011;7672;50.834;6.286;2023-03-13T12:13:46;1.20;;;0.82;;
15142;SDS011;7672;50.834;6.286;2023-03-13T12:16:40;1.52;;;0.80;;
15142;SDS011;7672;50.834;6.286;2023-03-13T12:19:31;3.55;;;0.93;;
15142;SDS011;7672;50.834;6.286;2023-03-13T12:22:10;1.15;;;0.85;;
15142;SDS011;7672;50.834;6.286;2023-03-13T12:24:50;0.90;;;0.90;;
15142;SDS011;7672;50.834;6.286;2023-03-13T12:27:38;0.98;;;0.95;;
15142;SDS011;7672;50.834;6.286;2023-03-13T12:33:25;1.25;;;1.08;;
15142;SDS011;7672;50.834;6.286;2023-03-13T12:36:05;1.15;;;1.00;;
15142;SDS011;7672;50.834;6.286;2023-03-13T12:38:55;1.98;;;1.48;;
15142;SDS011;7672;50.834;6.286;2023-03-13T12:41:55;1.35;;;1.00;;
15142;SDS011;7672;50.834;6.286;2023-03-13T12:44:34;2.90;;;1.25;;
15142;SDS011;7672;50.834;6.286;2023-03-13T12:47:20;1.98;;;1.00;;
15142;SDS011;7672;50.834;6.286;2023-03-13T12:50:14;2.30;;;0.98;;
15142;SDS011;7672;50.834;6.286;2023-03-13T12:53:29;2.20;;;1.30;;
15142;SDS011;7672;50.834;6.286;2023-03-13T12:59:13;1.88;;;1.30;;
15142;SDS011;7672;50.834;6.286;2023-03-13T13:01:49;1.13;;;0.98;;
15142;SDS011;7672;50.834;6.286;2023-03-13T13:04:21;1.35;;;1.10;;
15142;SDS011;7672;50.834;6.286;2023-03-13T13:09:34;0.90;;;0.90;;
15142;SDS011;7672;50.834;6.286;2023-03-13T13:12:17;2.97;;;0.90;;
15142;SDS011;7672;50.834;6.286;2023-03-13T13:17:30;1.20;;;1.10;;
15142;SDS011;7672;50.834;6.286;2023-03-13T13:20:24;1.23;;;1.13;;
15142;SDS011;7672;50.834;6.286;2023-03-13T13:23:19;1.42;;;1.23;;
15142;SDS011;7672;50.834;6.286;2023-03-13T13:28:59;1.95;;;1.10;;
15142;SDS011;7672;50.834;6.286;2023-03-13T13:37:02;1.88;;;1.20;;
15142;SDS011;7672;50.834;6.286;2023-03-13T13:39:49;1.20;;;1.10;;
15142;SDS011;7672;50.834;6.286;2023-03-13T13:47:40;1.10;;;1.00;;
15142;SDS011;7672;50.834;6.286;2023-03-13T13:50:23;1.13;;;1.02;;
15142;SDS011;7672;50.834;6.286;2023-03-13T13:53:23;1.38;;;1.20;;
15142;SDS011;7672;50.834;6.286;2023-03-13T13:55:56;1.88;;;1.20;;
15142;SDS011;7672;50.834;6.286;2023-03-13T13:58:24;1.17;;;1.08;;
15142;SDS011;7672;50.834;6.286;2023-03-13T14:00:57;2.25;;;1.30;;
15142;SDS011;7672;50.834;6.286;2023-03-13T14:03:30;1.75;;;1.10;;
15142;SDS011;7672;50.834;6.286;2023-03-13T14:05:59;2.72;;;1.10;;
15142;SDS011;7672;50.834;6.286;2023-03-13T14:08:44;0.90;;;0.90;;
15142;SDS011;7672;50.834;6.286;2023-03-13T14:11:24;1.67;;;1.00;;
15142;SDS011;7672;50.834;6.286;2023-03-13T14:14:09;0.90;;;0.90;;
15142;SDS011;7672;50.834;6.286;2023-03-13T14:16:44;3.77;;;1.00;;
15142;SDS011;7672;50.834;6.286;2023-03-13T14:19:27;1.00;;;1.00;;
15142;SDS011;7672;50.834;6.286;2023-03-13T14:21:59;1.63;;;1.10;;
15142;SDS011;7672;50.834;6.286;2023-03-13T14:24:32;2.60;;;1.20;;
15142;SDS011;7672;50.834;6.286;2023-03-13T14:27:00;0.80;;;0.80;;
15142;SDS011;7672;50.834;6.286;2023-03-13T14:29:40;3.70;;;1.27;;
15142;SDS011;7672;50.834;6.286;2023-03-13T14:32:07;1.70;;;0.80;;
15142;SDS011;7672;50.834;6.286;2023-03-13T14:34:34;1.83;;;1.00;;
15142;SDS011;7672;50.834;6.286;2023-03-13T14:37:01;1.63;;;1.13;;
15142;SDS011;7672;50.834;6.286;2023-03-13T14:39:43;1.13;;;0.80;;
15142;SDS011;7672;50.834;6.286;2023-03-13T14:42:14;0.90;;;0.90;;
15142;SDS011;7672;50.834;6.286;2023-03-13T14:44:43;1.13;;;1.03;;
15142;SDS011;7672;50.834;6.286;2023-03-13T14:49:57;2.53;;;1.10;;
15142;SDS011;7672;50.834;6.286;2023-03-13T14:52:36;1.00;;;0.90;;
15142;SDS011;7672;50.834;6.286;2023-03-13T14:57:57;1.17;;;1.03;;
15142;SDS011;7672;50.834;6.286;2023-03-13T15:00:33;0.90;;;0.90;;
15142;SDS011;7672;50.834;6.286;2023-03-13T15:05:42;1.10;;;1.00;;
15142;SDS011;7672;50.834;6.286;2023-03-13T15:08:16;1.57;;;1.03;;
15142;SDS011;7672;50.834;6.286;2023-03-13T15:10:46;1.07;;;1.00;;
15142;SDS011;7672;50.834;6.286;2023-03-13T15:16:02;2.50;;;1.50;;
15142;SDS011;7672;50.834;6.286;2023-03-13T15:18:45;1.50;;;1.20;;
15142;SDS011;7672;50.834;6.286;2023-03-13T15:23:40;2.20;;;1.23;;
15142;SDS011;7672;50.834;6.286;2023-03-13T15:26:08;1.83;;;1.13;;
15142;SDS011;7672;50.834;6.286;2023-03-13T15:28:35;2.17;;;1.20;;
15142;SDS011;7672;50.834;6.286;2023-03-13T15:31:02;2.30;;;1.40;;
15142;SDS011;7672;50.834;6.286;2023-03-13T15:33:29;2.10;;;1.27;;
15142;SDS011;7672;50.834;6.286;2023-03-13T15:35:56;2.53;;;1.53;;
15142;SDS011;7672;50.834;6.286;2023-03-13T15:38:24;1.97;;;1.50;;
15142;SDS011;7672;50.834;6.286;2023-03-13T15:40:53;2.83;;;1.37;;
15142;SDS011;7672;50.834;6.286;2023-03-13T15:43:20;2.90;;;1.30;;
15142;SDS011;7672;50.834;6.286;2023-03-13T15:45:49;1.90;;;1.50;;
15142;SDS011;7672;50.834;6.286;2023-03-13T15:48:20;1.90;;;1.23;;
15142;SDS011;7672;50.834;6.286;2023-03-13T15:50:51;2.63;;;1.27;;
15142;SDS011;7672;50.834;6.286;2023-03-13T15:53:24;1.97;;;1.37;;
15142;SDS011;7672;50.834;6.286;2023-03-13T15:56:02;2.10;;;1.50;;
15142;SDS011;7672;50.834;6.286;2023-03-13T15:58:43;1.77;;;1.17;;
15142;SDS011;7672;50.834;6.286;2023-03-13T16:01:12;2.10;;;1.27;;
15142;SDS011;7672;50.834;6.286;2023-03-13T16:03:42;3.40;;;1.57;;
15142;SDS011;7672;50.834;6.286;2023-03-13T16:06:16;1.70;;;1.30;;
15142;SDS011;7672;50.834;6.286;2023-03-13T16:08:46;3.43;;;1.47;;
15142;SDS011;7672;50.834;6.286;2023-03-13T16:11:13;2.17;;;1.00;;
15142;SDS011;7672;50.834;6.286;2023-03-13T16:13:42;3.10;;;1.47;;
15142;SDS011;7672;50.834;6.286;2023-03-13T16:16:16;1.97;;;1.60;;
15142;SDS011;7672;50.834;6.286;2023-03-13T16:18:50;3.30;;;1.40;;
15142;SDS011;7672;50.834;6.286;2023-03-13T16:21:19;5.30;;;1.60;;
15142;SDS011;7672;50.834;6.286;2023-03-13T16:23:49;5.10;;;1.77;;
15142;SDS011;7672;50.834;6.286;2023-03-13T16:26:22;3.47;;;1.40;;
15142;SDS011;7672;50.834;6.286;2023-03-13T16:28:53;5.50;;;1.70;;
15142;SDS011;7672;50.834;6.286;2023-03-13T16:31:24;3.23;;;1.43;;
15142;SDS011;7672;50.834;6.286;2023-03-13T16:33:54;4.90;;;1.50;;
15142;SDS011;7672;50.834;6.286;2023-03-13T16:36:27;3.47;;;1.37;;
15142;SDS011;7672;50.834;6.286;2023-03-13T16:38:57;4.70;;;1.70;;
15142;SDS011;7672;50.834;6.286;2023-03-13T16:41:26;3.53;;;1.63;;
15142;SDS011;7672;50.834;6.286;2023-03-13T16:43:54;4.17;;;1.63;;
15142;SDS011;7672;50.834;6.286;2023-03-13T16:46:23;3.27;;;1.70;;
15142;SDS011;7672;50.834;6.286;2023-03-13T16:48:55;4.23;;;1.70;;
15142;SDS011;7672;50.834;6.286;2023-03-13T16:51:24;6.10;;;3.93;;
15142;SDS011;7672;50.834;6.286;2023-03-13T16:53:53;5.97;;;2.80;;
15142;SDS011;7672;50.834;6.286;2023-03-13T16:56:26;4.70;;;2.40;;
15142;SDS011;7672;50.834;6.286;2023-03-13T16:59:01;4.70;;;1.93;;
15142;SDS011;7672;50.834;6.286;2023-03-13T17:01:39;6.00;;;2.00;;
15142;SDS011;7672;50.834;6.286;2023-03-13T17:04:06;2.97;;;1.77;;